createdAt,value
2018-03-23T00:00:39.927Z,29.53
2018-03-23T00:03:07.432Z,31.93
2018-03-23T00:05:34.927Z,29.40
2018-03-23T00:08:02.443Z,31.17
2018-03-23T00:10:29.919Z,31.97
2018-03-23T00:12:57.421Z,30.30
2018-03-23T00:15:25.664Z,31.83
2018-03-23T00:17:53.176Z,31.53
2018-03-23T00:20:21.429Z,33.00
2018-03-23T00:22:48.933Z,31.60
2018-03-23T00:25:17.184Z,34.50
2018-03-23T00:27:44.692Z,35.03
2018-03-23T00:30:12.948Z,31.40
2018-03-23T00:32:40.438Z,33.97
2018-03-23T00:35:07.915Z,32.40
2018-03-23T00:37:35.411Z,33.53
2018-03-23T00:40:02.892Z,34.00
2018-03-23T00:42:30.411Z,33.77
2018-03-23T00:44:57.887Z,34.57
2018-03-23T00:47:25.367Z,33.90
2018-03-23T00:49:53.639Z,33.37
2018-03-23T00:52:21.125Z,34.40
2018-03-23T00:54:49.392Z,34.30
2018-03-23T00:57:16.873Z,34.63
2018-03-23T00:59:44.376Z,38.30
2018-03-23T01:02:11.854Z,33.87
2018-03-23T01:04:39.360Z,33.97
2018-03-23T01:07:06.852Z,34.57
2018-03-23T01:09:34.368Z,35.00
2018-03-23T01:12:01.861Z,36.00
2018-03-23T01:14:29.375Z,33.80
2018-03-23T01:16:56.851Z,35.03
2018-03-23T01:19:25.127Z,34.03
2018-03-23T01:21:52.620Z,34.43
2018-03-23T01:24:20.123Z,34.07
2018-03-23T01:26:47.608Z,35.00
2018-03-23T01:29:15.083Z,35.70
2018-03-23T01:31:42.579Z,38.00
2018-03-23T01:34:10.059Z,36.93
2018-03-23T01:36:38.324Z,35.80
2018-03-23T01:39:05.811Z,36.70
2018-03-23T01:41:34.071Z,37.60
2018-03-23T01:44:01.551Z,36.90
2018-03-23T01:46:29.047Z,36.57
2018-03-23T01:48:57.310Z,36.03
2018-03-23T01:51:24.816Z,33.93
2018-03-23T01:53:53.065Z,35.20
2018-03-23T01:56:20.565Z,36.57
2018-03-23T01:58:48.919Z,34.30
2018-03-23T02:01:16.413Z,35.03
2018-03-23T02:03:43.900Z,35.63
2018-03-23T02:06:12.172Z,35.03
2018-03-23T02:08:40.438Z,34.67
2018-03-23T02:11:07.944Z,35.20
2018-03-23T02:13:36.204Z,34.07
2018-03-23T02:16:03.725Z,32.97
2018-03-23T02:18:31.216Z,35.37
2018-03-23T02:20:58.713Z,34.63
2018-03-23T02:23:26.242Z,34.40
2018-03-23T02:25:53.737Z,36.60
2018-03-23T02:28:21.240Z,36.53
2018-03-23T02:30:49.502Z,35.30
2018-03-23T02:33:17.022Z,32.70
2018-03-23T02:35:44.518Z,36.60
2018-03-23T02:38:12.034Z,34.23
2018-03-23T02:40:39.531Z,35.70
2018-03-23T02:43:07.042Z,36.30
2018-03-23T02:45:34.539Z,35.37
2018-03-23T02:48:02.054Z,36.93
2018-03-23T02:50:29.543Z,36.03
2018-03-23T02:52:57.058Z,36.70
2018-03-23T02:55:24.566Z,39.30
2018-03-23T02:57:52.085Z,37.37
2018-03-23T03:00:19.572Z,35.87
2018-03-23T03:02:47.839Z,37.23
2018-03-23T03:05:15.340Z,33.33
2018-03-23T03:07:43.615Z,37.83
2018-03-23T03:10:11.091Z,33.33
2018-03-23T03:12:38.601Z,36.70
2018-03-23T03:15:06.084Z,37.03
2018-03-23T03:17:33.569Z,35.90
2018-03-23T03:20:01.069Z,36.00
2018-03-23T03:22:28.551Z,35.80
2018-03-23T03:24:56.820Z,35.87
2018-03-23T03:27:24.313Z,34.87
2018-03-23T03:29:52.588Z,35.87
2018-03-23T03:32:20.841Z,35.67
2018-03-23T03:34:48.344Z,35.37
2018-03-23T03:37:15.823Z,35.60
2018-03-23T03:39:44.091Z,35.70
2018-03-23T03:42:11.567Z,33.67
2018-03-23T03:44:39.071Z,36.40
2018-03-23T03:47:06.547Z,35.50
2018-03-23T03:49:34.022Z,35.10
2018-03-23T03:52:01.524Z,36.57
2018-03-23T03:54:29.007Z,35.57
2018-03-23T03:56:56.508Z,33.67
2018-03-23T03:59:24.759Z,34.60
2018-03-23T04:01:52.259Z,34.60
2018-03-23T04:04:20.518Z,35.50
2018-03-23T04:06:48.016Z,35.03
2018-03-23T04:09:16.263Z,35.20
2018-03-23T04:11:43.768Z,35.53
2018-03-23T04:14:11.248Z,35.77
2018-03-23T04:16:39.518Z,34.33
2018-03-23T04:19:07.008Z,38.00
2018-03-23T04:21:35.267Z,35.67
2018-03-23T04:24:02.756Z,32.23
2018-03-23T04:26:30.251Z,35.00
2018-03-23T04:28:57.739Z,36.97
2018-03-23T04:31:25.239Z,36.17
2018-03-23T04:33:52.719Z,35.50
2018-03-23T04:36:20.215Z,31.63
2018-03-23T04:38:48.460Z,33.87
2018-03-23T04:41:15.958Z,35.23
2018-03-23T04:43:43.444Z,38.10
2018-03-23T04:46:11.731Z,49.03
2018-03-23T04:48:39.983Z,42.50
2018-03-23T04:51:07.466Z,41.77
2018-03-23T04:53:34.968Z,39.77
2018-03-23T04:56:03.211Z,35.80
2018-03-23T04:58:30.707Z,36.57
2018-03-23T05:00:58.197Z,34.63
2018-03-23T05:03:26.470Z,33.90
2018-03-23T05:05:54.911Z,31.83
2018-03-23T05:08:22.415Z,35.20
2018-03-23T05:10:49.891Z,34.63
2018-03-23T05:13:17.406Z,37.93
2018-03-23T05:15:44.895Z,36.80
2018-03-23T05:18:12.400Z,37.60
2018-03-23T05:20:39.896Z,36.40
2018-03-23T05:23:07.411Z,36.47
2018-03-23T05:25:34.896Z,35.30
2018-03-23T05:28:02.378Z,36.20
2018-03-23T05:30:29.879Z,33.83
2018-03-23T05:32:58.126Z,35.00
2018-03-23T05:35:25.635Z,36.17
2018-03-23T05:37:53.137Z,36.40
2018-03-23T05:40:20.647Z,36.20
2018-03-23T05:42:48.131Z,35.00
2018-03-23T05:45:16.400Z,38.63
2018-03-23T05:47:43.890Z,49.07
2018-03-23T05:50:11.394Z,34.90
2018-03-23T05:52:38.884Z,38.60
2018-03-23T05:55:06.378Z,33.97
2018-03-23T05:57:33.865Z,37.80
2018-03-23T06:00:02.143Z,35.67
2018-03-23T06:02:29.637Z,35.60
2018-03-23T06:04:57.903Z,36.90
2018-03-23T06:07:25.488Z,35.13
2018-03-23T06:09:53.003Z,35.17
2018-03-23T06:12:20.484Z,34.37
2018-03-23T06:14:47.989Z,35.47
2018-03-23T06:17:15.849Z,36.97
2018-03-23T06:19:43.361Z,36.40
2018-03-23T06:22:11.627Z,36.63
2018-03-23T06:24:39.107Z,35.57
2018-03-23T06:27:07.371Z,37.07
2018-03-23T06:29:34.852Z,36.33
2018-03-23T06:32:02.356Z,36.67
2018-03-23T06:34:29.850Z,39.20
2018-03-23T06:36:57.349Z,36.63
2018-03-23T06:39:24.842Z,38.90
2018-03-23T06:41:52.356Z,36.00
2018-03-23T06:44:19.861Z,36.90
2018-03-23T06:46:47.363Z,37.40
2018-03-23T06:49:15.616Z,35.03
2018-03-23T06:51:43.115Z,37.13
2018-03-23T06:54:11.370Z,36.50
2018-03-23T06:56:38.879Z,34.30
2018-03-23T06:59:07.137Z,35.97
2018-03-23T07:01:34.825Z,36.50
2018-03-23T07:04:02.712Z,34.77
2018-03-23T07:06:31.079Z,38.70
2018-03-23T07:08:59.560Z,38.20
2018-03-23T07:11:27.075Z,35.47
2018-03-23T07:13:54.705Z,35.87
2018-03-23T07:16:23.073Z,36.37
2018-03-23T07:18:51.313Z,37.27
2018-03-23T07:21:18.801Z,34.60
2018-03-23T07:23:47.068Z,37.83
2018-03-23T07:26:14.561Z,36.20
2018-03-23T07:28:42.837Z,36.57
2018-03-23T07:31:11.184Z,36.60
2018-03-23T07:33:39.459Z,43.10
2018-03-23T07:36:06.939Z,37.57
2018-03-23T07:38:34.457Z,36.70
2018-03-23T07:41:02.719Z,33.70
2018-03-23T07:43:30.224Z,35.90
2018-03-23T07:45:58.475Z,31.73
2018-03-23T07:48:25.991Z,33.00
2018-03-23T07:50:53.489Z,31.53
2018-03-23T07:53:20.991Z,33.17
2018-03-23T07:55:48.483Z,33.90
2018-03-23T07:58:16.763Z,30.87
2018-03-23T08:00:44.253Z,31.77
2018-03-23T08:03:12.514Z,35.30
2018-03-23T08:05:39.996Z,32.67
2018-03-23T08:08:07.503Z,33.20
2018-03-23T08:10:34.984Z,32.50
2018-03-23T08:13:02.492Z,35.63
2018-03-23T08:15:29.987Z,34.40
2018-03-23T08:17:58.240Z,33.20
2018-03-23T08:20:25.742Z,33.80
2018-03-23T08:22:53.996Z,33.30
2018-03-23T08:25:21.499Z,31.00
2018-03-23T08:27:49.752Z,32.03
2018-03-23T08:30:17.310Z,33.60
2018-03-23T08:32:45.528Z,33.03
2018-03-23T08:35:13.037Z,31.40
2018-03-23T08:37:40.531Z,33.77
2018-03-23T08:40:08.032Z,31.10
2018-03-23T08:42:35.515Z,32.83
2018-03-23T08:45:03.021Z,33.67
2018-03-23T08:47:30.503Z,33.70
2018-03-23T08:49:58.000Z,34.17
2018-03-23T08:52:33.300Z,31.33
2018-03-23T08:55:01.564Z,32.37
2018-03-23T08:57:29.049Z,30.27
2018-03-23T08:59:57.319Z,34.40
2018-03-23T09:02:24.799Z,33.90
2018-03-23T09:04:52.302Z,33.87
2018-03-23T09:07:19.784Z,30.87
2018-03-23T09:09:47.283Z,31.27
2018-03-23T09:12:14.764Z,30.60
2018-03-23T09:14:42.253Z,30.73
2018-03-23T09:17:10.525Z,31.33
2018-03-23T09:19:38.027Z,32.50
2018-03-23T09:22:06.305Z,32.57
2018-03-23T09:24:34.551Z,35.07
2018-03-23T09:27:02.056Z,32.13
2018-03-23T09:29:29.545Z,30.63
2018-03-23T09:31:57.461Z,30.40
2018-03-23T09:34:24.975Z,28.97
2018-03-23T09:36:52.488Z,28.00
2018-03-23T09:39:20.001Z,28.37
2018-03-23T09:41:47.504Z,29.57
2018-03-23T09:44:19.319Z,30.20
2018-03-23T09:46:46.864Z,30.30
2018-03-23T09:49:14.352Z,27.30
2018-03-23T09:51:41.860Z,26.10
2018-03-23T09:54:09.345Z,24.67
2018-03-23T09:56:36.857Z,27.10
2018-03-23T09:59:04.339Z,27.73
2018-03-23T10:01:31.839Z,24.43
2018-03-23T10:03:59.362Z,25.07
2018-03-23T10:06:27.610Z,24.77
2018-03-23T10:08:55.088Z,24.87
2018-03-23T10:11:23.367Z,34.97
2018-03-23T10:13:58.562Z,25.43
2018-03-23T10:16:26.079Z,36.07
2018-03-23T10:18:53.563Z,25.80
2018-03-23T10:21:21.090Z,24.70
2018-03-23T10:23:48.580Z,25.13
2018-03-23T10:26:16.072Z,28.47
2018-03-23T10:28:43.575Z,25.90
2018-03-23T10:31:11.064Z,25.17
2018-03-23T10:33:39.329Z,26.47
2018-03-23T10:36:06.811Z,26.93
2018-03-23T10:38:34.317Z,28.20
2018-03-23T10:41:01.801Z,26.53
2018-03-23T10:43:29.307Z,26.77
2018-03-23T10:45:56.794Z,26.60
2018-03-23T10:48:24.299Z,28.60
2018-03-23T10:50:52.989Z,29.00
2018-03-23T10:53:21.312Z,28.67
2018-03-23T10:55:48.792Z,31.00
2018-03-23T10:58:17.055Z,28.00
2018-03-23T11:00:50.168Z,27.20
2018-03-23T11:03:17.683Z,27.13
2018-03-23T11:05:45.179Z,25.90
2018-03-23T11:08:12.679Z,26.10
2018-03-23T11:10:45.187Z,26.87
2018-03-23T11:13:13.468Z,26.70
2018-03-23T11:15:48.213Z,25.63
2018-03-23T11:18:16.500Z,26.60
2018-03-23T11:20:44.751Z,24.70
2018-03-23T11:23:12.236Z,25.37
2018-03-23T11:25:39.741Z,21.47
2018-03-23T11:28:07.231Z,21.10
2018-03-23T11:30:34.731Z,22.40
2018-03-23T11:33:02.216Z,21.30
2018-03-23T11:35:29.781Z,21.67
2018-03-23T11:37:57.265Z,22.30
2018-03-23T11:40:34.717Z,20.93
2018-03-23T11:43:02.969Z,19.37
2018-03-23T11:45:31.234Z,21.77
2018-03-23T11:47:58.716Z,22.90
2018-03-23T11:50:26.336Z,20.90
2018-03-23T11:52:53.819Z,20.57
2018-03-23T11:55:21.353Z,21.27
2018-03-23T11:57:48.834Z,20.27
2018-03-23T12:00:16.346Z,21.00
2018-03-23T12:02:43.838Z,21.60
2018-03-23T12:05:14.550Z,38.40
2018-03-23T12:07:42.044Z,24.73
2018-03-23T12:10:09.547Z,22.00
2018-03-23T12:12:37.808Z,23.43
2018-03-23T12:15:05.316Z,23.33
2018-03-23T12:17:32.796Z,23.10
2018-03-23T12:20:00.279Z,22.40
2018-03-23T12:22:28.552Z,21.70
2018-03-23T12:24:56.031Z,22.00
2018-03-23T12:27:23.541Z,20.20
2018-03-23T12:29:51.021Z,21.17
2018-03-23T12:32:18.522Z,20.53
2018-03-23T12:34:46.062Z,24.47
2018-03-23T12:37:13.531Z,21.00
2018-03-23T12:39:41.019Z,21.50
2018-03-23T12:42:09.289Z,20.57
2018-03-23T12:44:36.771Z,22.70
2018-03-23T12:47:04.272Z,20.17
2018-03-23T12:49:31.777Z,21.37
2018-03-23T12:51:59.284Z,20.17
2018-03-23T12:54:27.533Z,21.83
2018-03-23T12:56:55.035Z,21.97
2018-03-23T12:59:23.286Z,22.60
2018-03-23T13:01:50.795Z,21.43
2018-03-23T13:04:22.087Z,22.33
2018-03-23T13:06:49.585Z,20.63
2018-03-23T13:09:17.070Z,21.33
2018-03-23T13:11:44.589Z,22.07
2018-03-23T13:14:12.067Z,20.43
2018-03-23T13:16:39.551Z,20.00
2018-03-23T13:19:07.052Z,20.53
2018-03-23T13:21:34.527Z,19.20
2018-03-23T13:24:02.025Z,19.53
2018-03-23T13:26:29.499Z,19.00
2018-03-23T13:28:57.787Z,19.87
2018-03-23T13:31:26.039Z,19.00
2018-03-23T13:33:53.553Z,20.10
2018-03-23T13:36:21.052Z,19.87
2018-03-23T13:38:48.555Z,19.27
2018-03-23T13:41:16.042Z,19.53
2018-03-23T13:43:43.542Z,21.73
2018-03-23T13:46:11.038Z,18.50
2018-03-23T13:48:38.545Z,20.17
2018-03-23T13:51:06.032Z,20.77
2018-03-23T13:53:34.296Z,21.63
2018-03-23T13:56:01.781Z,18.27
2018-03-23T13:58:35.650Z,18.63
2018-03-23T14:01:03.140Z,19.60
2018-03-23T14:03:30.642Z,17.53
2018-03-23T14:05:58.887Z,18.40
2018-03-23T14:08:26.424Z,20.57
2018-03-23T14:10:53.903Z,17.00
2018-03-23T14:13:21.403Z,19.10
2018-03-23T14:15:48.911Z,16.67
2018-03-23T14:18:17.163Z,16.13
2018-03-23T14:20:44.668Z,15.77
2018-03-23T14:23:12.925Z,15.73
2018-03-23T14:25:40.435Z,15.10
2018-03-23T14:28:08.679Z,17.90
2018-03-23T14:30:36.183Z,15.30
2018-03-23T14:33:03.664Z,16.53
2018-03-23T14:35:31.937Z,16.63
2018-03-23T14:37:59.419Z,16.83
2018-03-23T14:40:27.704Z,17.70
2018-03-23T14:42:55.950Z,18.03
2018-03-23T14:45:23.826Z,18.97
2018-03-23T14:47:51.315Z,16.00
2018-03-23T14:50:18.811Z,17.37
2018-03-23T14:52:47.064Z,18.50
2018-03-23T14:55:14.567Z,18.60
2018-03-23T14:57:42.820Z,18.47
2018-03-23T15:00:10.340Z,21.70
2018-03-23T15:02:38.592Z,23.07
2018-03-23T15:05:06.079Z,21.43
2018-03-23T15:07:34.356Z,20.90
2018-03-23T15:10:01.894Z,18.90
2018-03-23T15:12:30.124Z,19.13
2018-03-23T15:14:57.616Z,19.87
2018-03-23T15:17:25.883Z,19.40
2018-03-23T15:19:53.375Z,19.73
2018-03-23T15:22:20.902Z,21.63
2018-03-23T15:24:48.389Z,21.17
2018-03-23T15:27:16.677Z,20.47
2018-03-23T15:29:44.159Z,19.30
2018-03-23T15:32:12.433Z,19.10
2018-03-23T15:34:39.911Z,19.53
2018-03-23T15:37:07.429Z,19.40
2018-03-23T15:39:34.926Z,20.50
2018-03-23T15:42:02.440Z,20.50
2018-03-23T15:44:30.693Z,20.43
2018-03-23T15:46:58.204Z,21.50
2018-03-23T15:49:25.686Z,20.27
2018-03-23T15:51:53.195Z,21.70
2018-03-23T15:54:20.726Z,21.10
2018-03-23T15:56:48.191Z,19.10
2018-03-23T15:59:15.685Z,23.30
2018-03-23T16:01:43.207Z,20.90
2018-03-23T16:04:11.457Z,19.60
2018-03-23T16:06:38.957Z,22.53
2018-03-23T16:09:06.471Z,21.47
2018-03-23T16:11:33.953Z,20.50
2018-03-23T16:14:01.460Z,19.97
2018-03-23T16:16:28.957Z,19.37
2018-03-23T16:18:57.245Z,20.80
2018-03-23T16:21:24.747Z,20.83
2018-03-23T16:23:56.244Z,20.00
2018-03-23T16:26:23.774Z,19.83
2018-03-23T16:28:52.105Z,17.87
2018-03-23T16:31:19.714Z,19.90
2018-03-23T16:33:48.067Z,18.87
2018-03-23T16:36:15.562Z,22.30
2018-03-23T16:38:43.067Z,20.70
2018-03-23T16:41:10.675Z,21.20
2018-03-23T16:43:39.030Z,22.37
2018-03-23T16:46:06.647Z,21.63
2018-03-23T16:48:34.152Z,21.70
2018-03-23T16:51:02.425Z,21.73
2018-03-23T16:53:29.982Z,21.50
2018-03-23T16:55:57.486Z,24.00
2018-03-23T16:58:25.737Z,24.20
2018-03-23T17:00:53.247Z,22.20
2018-03-23T17:03:21.887Z,22.50
2018-03-23T17:05:49.400Z,22.43
2018-03-23T17:08:17.655Z,20.47
2018-03-23T17:10:45.165Z,22.80
2018-03-23T17:13:13.414Z,20.60
2018-03-23T17:15:40.914Z,22.00
2018-03-23T17:18:09.168Z,23.10
2018-03-23T17:20:36.671Z,23.00
2018-03-23T17:23:04.168Z,22.30
2018-03-23T17:25:31.679Z,22.67
2018-03-23T17:27:59.158Z,22.17
2018-03-23T17:30:26.674Z,21.73
2018-03-23T17:32:54.165Z,23.53
2018-03-23T17:35:21.669Z,22.43
2018-03-23T17:37:49.153Z,24.13
2018-03-23T17:40:16.650Z,25.37
2018-03-23T17:42:44.905Z,21.70
2018-03-23T17:45:12.407Z,22.27
2018-03-23T17:47:40.663Z,23.03
2018-03-23T17:50:08.175Z,21.20
2018-03-23T17:52:35.686Z,22.93
2018-03-23T17:55:07.674Z,23.03
2018-03-23T17:57:35.167Z,22.10
2018-03-23T18:00:03.431Z,20.57
2018-03-23T18:02:30.942Z,23.30
2018-03-23T18:04:59.207Z,23.90
2018-03-23T18:07:26.717Z,24.70
2018-03-23T18:09:54.250Z,24.50
2018-03-23T18:12:21.759Z,22.10
2018-03-23T18:14:49.246Z,22.97
2018-03-23T18:17:16.754Z,21.17
2018-03-23T18:19:44.247Z,23.37
2018-03-23T18:22:12.519Z,22.00
2018-03-23T18:24:40.017Z,22.67
2018-03-23T18:27:07.530Z,20.80
2018-03-23T18:29:35.024Z,21.47
2018-03-23T18:32:02.563Z,23.60
2018-03-23T18:34:30.048Z,23.27
2018-03-23T18:36:57.559Z,20.93
2018-03-23T18:39:25.824Z,20.90
2018-03-23T18:41:53.363Z,22.27
2018-03-23T18:44:20.864Z,20.37
2018-03-23T18:46:48.378Z,21.43
2018-03-23T18:49:15.862Z,25.03
2018-03-23T18:51:43.339Z,23.27
2018-03-23T18:54:12.783Z,20.53
2018-03-23T18:56:40.273Z,20.57
2018-03-23T18:59:08.543Z,23.17
2018-03-23T19:01:36.037Z,21.40
2018-03-23T19:04:03.547Z,22.37
2018-03-23T19:06:31.051Z,22.87
2018-03-23T19:08:58.574Z,21.70
2018-03-23T19:11:26.071Z,21.50
2018-03-23T19:13:53.613Z,23.10
2018-03-23T19:16:21.109Z,22.87
2018-03-23T19:18:48.631Z,22.40
2018-03-23T19:21:16.895Z,21.87
2018-03-23T19:23:44.403Z,22.63
2018-03-23T19:26:11.909Z,23.27
2018-03-23T19:28:39.413Z,22.73
2018-03-23T19:31:06.900Z,22.17
2018-03-23T19:33:35.164Z,20.70
2018-03-23T19:36:02.653Z,22.20
2018-03-23T19:38:30.175Z,23.60
2018-03-23T19:40:58.432Z,19.80
2018-03-23T19:43:25.973Z,19.97
2018-03-23T19:45:53.460Z,21.57
2018-03-23T19:48:21.734Z,22.77
2018-03-23T19:50:50.033Z,22.30
2018-03-23T19:53:18.287Z,22.30
2018-03-23T19:55:45.795Z,27.03
2018-03-23T19:58:14.042Z,22.63
2018-03-23T20:00:41.554Z,21.67
2018-03-23T20:03:09.804Z,22.40
2018-03-23T20:05:37.306Z,22.10
2018-03-23T20:08:04.794Z,21.83
2018-03-23T20:10:32.302Z,22.20
2018-03-23T20:12:59.813Z,23.20
2018-03-23T20:15:28.102Z,21.10
2018-03-23T20:18:01.319Z,23.10
2018-03-23T20:20:35.188Z,26.80
2018-03-23T20:23:02.679Z,22.87
2018-03-23T20:25:30.182Z,21.57
2018-03-23T20:28:04.141Z,22.17
2018-03-23T20:30:31.644Z,22.20
2018-03-23T20:33:00.164Z,22.40
2018-03-23T20:35:27.904Z,21.40
2018-03-23T20:37:55.444Z,21.20
2018-03-23T20:40:22.976Z,22.03
2018-03-23T20:42:50.458Z,21.70
2018-03-23T20:45:18.846Z,21.80
2018-03-23T20:47:46.465Z,23.50
2018-03-23T20:50:14.168Z,22.40
2018-03-23T20:52:41.685Z,21.87
2018-03-23T20:55:09.168Z,22.87
2018-03-23T20:57:36.667Z,21.60
2018-03-23T21:00:04.144Z,22.03
2018-03-23T21:02:31.649Z,21.50
2018-03-23T21:05:10.593Z,20.70
2018-03-23T21:07:38.858Z,22.83
2018-03-23T21:10:06.368Z,22.33
2018-03-23T21:12:33.875Z,25.13
2018-03-23T21:15:01.410Z,24.03
2018-03-23T21:17:28.944Z,24.50
2018-03-23T21:19:56.392Z,24.83
2018-03-23T21:22:23.913Z,24.93
2018-03-23T21:24:51.413Z,97.47
2018-03-23T21:27:18.923Z,59.23
2018-03-23T21:29:46.408Z,33.10
2018-03-23T21:32:14.675Z,27.03
2018-03-23T21:34:42.148Z,27.70
2018-03-23T21:37:09.670Z,26.50
2018-03-23T21:39:37.929Z,27.10
2018-03-23T21:42:06.189Z,26.47
2018-03-23T21:44:33.691Z,26.40
2018-03-23T21:47:01.183Z,26.00
2018-03-23T21:49:29.464Z,27.40
2018-03-23T21:51:56.955Z,27.03
2018-03-23T21:54:24.463Z,26.07
2018-03-23T21:56:51.939Z,27.30
2018-03-23T21:59:19.445Z,27.80
2018-03-23T22:01:46.941Z,26.27
2018-03-23T22:04:14.472Z,27.57
2018-03-23T22:06:41.960Z,23.40
2018-03-23T22:09:09.458Z,22.53
2018-03-23T22:11:36.941Z,23.97
2018-03-23T22:14:04.448Z,21.87
2018-03-23T22:16:32.709Z,21.30
2018-03-23T22:19:00.288Z,24.97
2018-03-23T22:21:28.552Z,31.47
2018-03-23T22:23:56.078Z,32.33
2018-03-23T22:26:23.581Z,25.00
2018-03-23T22:28:51.094Z,22.57
2018-03-23T22:31:19.351Z,21.97
2018-03-23T22:33:46.863Z,23.10
2018-03-23T22:36:15.172Z,20.80
2018-03-23T22:38:42.651Z,21.93
2018-03-23T22:41:10.151Z,21.10
2018-03-23T22:43:37.627Z,19.70
2018-03-23T22:46:05.132Z,21.77
2018-03-23T22:48:33.390Z,21.53
2018-03-23T22:51:00.900Z,20.73
2018-03-23T22:53:29.152Z,21.20
2018-03-23T22:55:56.660Z,22.30
2018-03-23T22:58:24.145Z,22.03
2018-03-23T23:00:51.656Z,22.27
2018-03-23T23:03:19.156Z,23.90
2018-03-23T23:05:47.426Z,21.80
2018-03-23T23:08:14.929Z,20.20
2018-03-23T23:10:42.449Z,23.07
2018-03-23T23:13:09.942Z,22.23
2018-03-23T23:15:37.456Z,21.70
2018-03-23T23:18:04.948Z,20.80
2018-03-23T23:20:32.463Z,33.47
2018-03-23T23:22:59.949Z,50.83
2018-03-23T23:25:28.230Z,26.50
2018-03-23T23:27:56.488Z,23.90
2018-03-23T23:30:23.994Z,23.50
2018-03-23T23:32:52.267Z,25.90
2018-03-23T23:35:20.515Z,23.47
2018-03-23T23:37:48.020Z,25.07
2018-03-23T23:40:15.497Z,25.17
2018-03-23T23:42:43.001Z,24.93
2018-03-23T23:45:10.484Z,23.77
2018-03-23T23:47:37.999Z,22.07
2018-03-23T23:50:05.493Z,22.90
2018-03-23T23:52:33.776Z,22.80
2018-03-23T23:55:02.027Z,23.47
2018-03-23T23:57:29.536Z,22.80
2018-03-23T23:59:57.788Z,22.40
